sensor_id;sensor_type;location;lat;lon;timestamp;P1;durP1;ratioP1;P2;durP2;ratioP2
14599;SDS011;7386;45.586;12.854;2023-10-13T00:01:04;118.25;;;64.88;;
14599;SDS011;7386;45.586;12.854;2023-10-13T00:03:33;112.85;;;62.45;;
14599;SDS011;7386;45.586;12.854;2023-10-13T00:06:05;113.65;;;61.28;;
14599;SDS011;7386;45.586;12.854;2023-10-13T00:08:34;113.13;;;61.22;;
14599;SDS011;7386;45.586;12.854;2023-10-13T00:11:06;113.72;;;60.08;;
14599;SDS011;7386;45.586;12.854;2023-10-13T00:13:36;112.32;;;59.85;;
14599;SDS011;7386;45.586;12.854;2023-10-13T00:16:09;102.82;;;57.13;;
14599;SDS011;7386;45.586;12.854;2023-10-13T00:18:44;103.35;;;56.47;;
14599;SDS011;7386;45.586;12.854;2023-10-13T00:21:14;104.65;;;59.42;;
14599;SDS011;7386;45.586;12.854;2023-10-13T00:23:46;120.88;;;64.47;;
14599;SDS011;7386;45.586;12.854;2023-10-13T00:26:21;123.25;;;66.47;;
14599;SDS011;7386;45.586;12.854;2023-10-13T00:28:54;131.50;;;72.78;;
14599;SDS011;7386;45.586;12.854;2023-10-13T00:31:35;136.45;;;72.65;;
14599;SDS011;7386;45.586;12.854;2023-10-13T00:34:07;139.80;;;73.53;;
14599;SDS011;7386;45.586;12.854;2023-10-13T00:36:40;134.70;;;73.47;;
14599;SDS011;7386;45.586;12.854;2023-10-13T00:39:15;134.55;;;72.32;;
14599;SDS011;7386;45.586;12.854;2023-10-13T00:41:44;143.07;;;74.97;;
14599;SDS011;7386;45.586;12.854;2023-10-13T00:44:19;154.30;;;77.97;;
14599;SDS011;7386;45.586;12.854;2023-10-13T00:46:55;143.68;;;75.25;;
14599;SDS011;7386;45.586;12.854;2023-10-13T00:49:23;150.02;;;77.38;;
14599;SDS011;7386;45.586;12.854;2023-10-13T00:51:54;157.38;;;81.95;;
14599;SDS011;7386;45.586;12.854;2023-10-13T00:54:22;149.73;;;80.00;;
14599;SDS011;7386;45.586;12.854;2023-10-13T00:56:54;155.40;;;81.93;;
14599;SDS011;7386;45.586;12.854;2023-10-13T00:59:30;154.80;;;79.38;;
14599;SDS011;7386;45.586;12.854;2023-10-13T01:02:08;153.77;;;81.03;;
14599;SDS011;7386;45.586;12.854;2023-10-13T01:04:50;152.98;;;80.97;;
14599;SDS011;7386;45.586;12.854;2023-10-13T01:07:22;142.18;;;77.00;;
14599;SDS011;7386;45.586;12.854;2023-10-13T01:09:51;144.38;;;77.22;;
14599;SDS011;7386;45.586;12.854;2023-10-13T01:12:19;142.55;;;77.13;;
14599;SDS011;7386;45.586;12.854;2023-10-13T01:14:50;136.57;;;74.72;;
14599;SDS011;7386;45.586;12.854;2023-10-13T01:17:18;147.38;;;76.85;;
14599;SDS011;7386;45.586;12.854;2023-10-13T01:19:49;146.70;;;76.10;;
14599;SDS011;7386;45.586;12.854;2023-10-13T01:22:26;152.52;;;77.85;;
14599;SDS011;7386;45.586;12.854;2023-10-13T01:24:56;149.15;;;77.13;;
14599;SDS011;7386;45.586;12.854;2023-10-13T01:27:36;151.30;;;78.00;;
14599;SDS011;7386;45.586;12.854;2023-10-13T01:30:05;141.02;;;75.53;;
14599;SDS011;7386;45.586;12.854;2023-10-13T01:32:40;147.55;;;74.63;;
14599;SDS011;7386;45.586;12.854;2023-10-13T01:35:12;141.27;;;75.88;;
14599;SDS011;7386;45.586;12.854;2023-10-13T01:37:40;140.48;;;74.70;;
14599;SDS011;7386;45.586;12.854;2023-10-13T01:40:10;139.32;;;72.72;;
14599;SDS011;7386;45.586;12.854;2023-10-13T01:42:44;136.23;;;72.78;;
14599;SDS011;7386;45.586;12.854;2023-10-13T01:45:12;137.98;;;72.70;;
14599;SDS011;7386;45.586;12.854;2023-10-13T01:47:40;136.88;;;70.40;;
14599;SDS011;7386;45.586;12.854;2023-10-13T01:50:13;137.35;;;70.13;;
14599;SDS011;7386;45.586;12.854;2023-10-13T01:52:41;131.63;;;70.05;;
14599;SDS011;7386;45.586;12.854;2023-10-13T01:55:11;133.77;;;68.88;;
14599;SDS011;7386;45.586;12.854;2023-10-13T01:57:41;132.82;;;66.15;;
14599;SDS011;7386;45.586;12.854;2023-10-13T02:00:14;130.85;;;66.90;;
14599;SDS011;7386;45.586;12.854;2023-10-13T02:02:45;132.98;;;66.30;;
14599;SDS011;7386;45.586;12.854;2023-10-13T02:05:16;138.65;;;71.20;;
14599;SDS011;7386;45.586;12.854;2023-10-13T02:07:44;136.32;;;71.15;;
14599;SDS011;7386;45.586;12.854;2023-10-13T02:10:14;143.68;;;73.63;;
14599;SDS011;7386;45.586;12.854;2023-10-13T02:12:42;144.15;;;72.15;;
14599;SDS011;7386;45.586;12.854;2023-10-13T02:15:11;146.98;;;74.25;;
14599;SDS011;7386;45.586;12.854;2023-10-13T02:17:47;150.75;;;76.70;;
14599;SDS011;7386;45.586;12.854;2023-10-13T02:20:18;146.63;;;74.50;;
14599;SDS011;7386;45.586;12.854;2023-10-13T02:22:49;147.05;;;76.28;;
14599;SDS011;7386;45.586;12.854;2023-10-13T02:25:19;149.23;;;76.53;;
14599;SDS011;7386;45.586;12.854;2023-10-13T02:28:02;145.70;;;75.43;;
14599;SDS011;7386;45.586;12.854;2023-10-13T02:30:37;142.25;;;75.57;;
14599;SDS011;7386;45.586;12.854;2023-10-13T02:33:04;145.23;;;74.07;;
14599;SDS011;7386;45.586;12.854;2023-10-13T02:35:33;157.90;;;79.78;;
14599;SDS011;7386;45.586;12.854;2023-10-13T02:38:01;166.85;;;83.63;;
14599;SDS011;7386;45.586;12.854;2023-10-13T02:40:38;163.38;;;82.40;;
14599;SDS011;7386;45.586;12.854;2023-10-13T02:43:06;163.93;;;84.40;;
14599;SDS011;7386;45.586;12.854;2023-10-13T02:45:35;159.50;;;82.63;;
14599;SDS011;7386;45.586;12.854;2023-10-13T02:48:03;157.88;;;80.03;;
14599;SDS011;7386;45.586;12.854;2023-10-13T02:50:39;156.05;;;79.57;;
14599;SDS011;7386;45.586;12.854;2023-10-13T02:53:12;158.02;;;79.28;;
14599;SDS011;7386;45.586;12.854;2023-10-13T02:55:52;154.35;;;76.55;;
14599;SDS011;7386;45.586;12.854;2023-10-13T02:58:23;164.70;;;83.25;;
14599;SDS011;7386;45.586;12.854;2023-10-13T03:01:07;163.73;;;78.57;;
14599;SDS011;7386;45.586;12.854;2023-10-13T03:03:45;165.73;;;78.75;;
14599;SDS011;7386;45.586;12.854;2023-10-13T03:06:18;161.02;;;76.43;;
14599;SDS011;7386;45.586;12.854;2023-10-13T03:08:51;161.63;;;78.20;;
14599;SDS011;7386;45.586;12.854;2023-10-13T03:11:20;148.05;;;75.07;;
14599;SDS011;7386;45.586;12.854;2023-10-13T03:13:50;157.18;;;75.22;;
14599;SDS011;7386;45.586;12.854;2023-10-13T03:16:19;139.18;;;70.57;;
14599;SDS011;7386;45.586;12.854;2023-10-13T03:18:48;147.30;;;72.22;;
14599;SDS011;7386;45.586;12.854;2023-10-13T03:21:22;139.77;;;73.68;;
14599;SDS011;7386;45.586;12.854;2023-10-13T03:23:57;144.20;;;70.63;;
14599;SDS011;7386;45.586;12.854;2023-10-13T03:26:34;149.43;;;74.80;;
14599;SDS011;7386;45.586;12.854;2023-10-13T03:29:03;146.05;;;71.57;;
14599;SDS011;7386;45.586;12.854;2023-10-13T03:31:35;145.27;;;71.28;;
14599;SDS011;7386;45.586;12.854;2023-10-13T03:34:05;135.95;;;70.70;;
14599;SDS011;7386;45.586;12.854;2023-10-13T03:36:38;146.65;;;72.28;;
14599;SDS011;7386;45.586;12.854;2023-10-13T03:39:25;143.23;;;73.20;;
14599;SDS011;7386;45.586;12.854;2023-10-13T03:41:57;158.02;;;76.85;;
14599;SDS011;7386;45.586;12.854;2023-10-13T03:44:26;151.85;;;77.38;;
14599;SDS011;7386;45.586;12.854;2023-10-13T03:46:57;155.32;;;75.55;;
14599;SDS011;7386;45.586;12.854;2023-10-13T03:49:44;155.75;;;76.25;;
14599;SDS011;7386;45.586;12.854;2023-10-13T03:52:17;165.63;;;79.13;;
14599;SDS011;7386;45.586;12.854;2023-10-13T03:54:49;163.02;;;79.25;;
14599;SDS011;7386;45.586;12.854;2023-10-13T03:57:19;164.35;;;78.72;;
14599;SDS011;7386;45.586;12.854;2023-10-13T03:59:48;156.82;;;79.00;;
14599;SDS011;7386;45.586;12.854;2023-10-13T04:02:16;171.77;;;82.00;;
14599;SDS011;7386;45.586;12.854;2023-10-13T04:04:50;158.52;;;78.10;;
14599;SDS011;7386;45.586;12.854;2023-10-13T04:07:21;168.32;;;82.25;;
14599;SDS011;7386;45.586;12.854;2023-10-13T04:10:27;169.80;;;81.18;;
14599;SDS011;7386;45.586;12.854;2023-10-13T04:13:15;158.02;;;77.72;;
14599;SDS011;7386;45.586;12.854;2023-10-13T04:16:01;153.85;;;76.80;;
14599;SDS011;7386;45.586;12.854;2023-10-13T04:18:41;148.65;;;73.25;;
14599;SDS011;7386;45.586;12.854;2023-10-13T04:21:34;147.98;;;73.35;;
14599;SDS011;7386;45.586;12.854;2023-10-13T04:24:21;157.32;;;78.15;;
14599;SDS011;7386;45.586;12.854;2023-10-13T04:26:52;164.73;;;81.82;;
14599;SDS011;7386;45.586;12.854;2023-10-13T04:29:41;172.57;;;83.88;;
14599;SDS011;7386;45.586;12.854;2023-10-13T04:32:23;172.43;;;88.00;;
14599;SDS011;7386;45.586;12.854;2023-10-13T04:34:55;174.65;;;86.90;;
14599;SDS011;7386;45.586;12.854;2023-10-13T04:37:34;180.73;;;86.75;;
14599;SDS011;7386;45.586;12.854;2023-10-13T04:40:18;168.32;;;84.88;;
14599;SDS011;7386;45.586;12.854;2023-10-13T04:42:51;177.48;;;87.20;;
14599;SDS011;7386;45.586;12.854;2023-10-13T04:45:25;165.13;;;83.85;;
14599;SDS011;7386;45.586;12.854;2023-10-13T04:48:13;170.82;;;83.10;;
14599;SDS011;7386;45.586;12.854;2023-10-13T04:50:45;161.75;;;82.85;;
14599;SDS011;7386;45.586;12.854;2023-10-13T04:53:17;164.80;;;83.63;;
14599;SDS011;7386;45.586;12.854;2023-10-13T04:56:02;166.30;;;81.78;;
14599;SDS011;7386;45.586;12.854;2023-10-13T04:58:50;148.73;;;74.82;;
14599;SDS011;7386;45.586;12.854;2023-10-13T05:01:38;157.93;;;79.32;;
14599;SDS011;7386;45.586;12.854;2023-10-13T05:04:27;147.73;;;75.32;;
14599;SDS011;7386;45.586;12.854;2023-10-13T05:07:05;143.40;;;73.38;;
14599;SDS011;7386;45.586;12.854;2023-10-13T05:09:51;145.18;;;73.57;;
14599;SDS011;7386;45.586;12.854;2023-10-13T05:12:37;140.05;;;72.45;;
14599;SDS011;7386;45.586;12.854;2023-10-13T05:15:23;146.80;;;73.35;;
14599;SDS011;7386;45.586;12.854;2023-10-13T05:18:07;142.13;;;70.70;;
14599;SDS011;7386;45.586;12.854;2023-10-13T05:20:54;139.27;;;70.20;;
14599;SDS011;7386;45.586;12.854;2023-10-13T05:23:40;137.48;;;71.43;;
14599;SDS011;7386;45.586;12.854;2023-10-13T05:26:27;134.10;;;67.72;;
14599;SDS011;7386;45.586;12.854;2023-10-13T05:29:13;131.02;;;67.40;;
14599;SDS011;7386;45.586;12.854;2023-10-13T05:32:00;136.70;;;67.22;;
14599;SDS011;7386;45.586;12.854;2023-10-13T05:34:47;134.82;;;67.45;;
14599;SDS011;7386;45.586;12.854;2023-10-13T05:37:33;126.97;;;66.22;;
14599;SDS011;7386;45.586;12.854;2023-10-13T05:40:19;132.45;;;70.25;;
14599;SDS011;7386;45.586;12.854;2023-10-13T05:43:06;125.10;;;65.38;;
14599;SDS011;7386;45.586;12.854;2023-10-13T05:45:52;121.47;;;62.83;;
14599;SDS011;7386;45.586;12.854;2023-10-13T05:48:38;122.18;;;63.60;;
14599;SDS011;7386;45.586;12.854;2023-10-13T05:51:31;90.07;;;48.55;;
14599;SDS011;7386;45.586;12.854;2023-10-13T05:54:10;55.25;;;33.63;;
14599;SDS011;7386;45.586;12.854;2023-10-13T05:56:56;37.45;;;24.42;;
14599;SDS011;7386;45.586;12.854;2023-10-13T05:59:41;31.15;;;19.92;;
14599;SDS011;7386;45.586;12.854;2023-10-13T06:02:27;24.00;;;17.33;;
14599;SDS011;7386;45.586;12.854;2023-10-13T06:05:13;22.85;;;16.95;;
14599;SDS011;7386;45.586;12.854;2023-10-13T06:08:00;21.83;;;16.17;;
14599;SDS011;7386;45.586;12.854;2023-10-13T06:10:46;25.00;;;17.45;;
14599;SDS011;7386;45.586;12.854;2023-10-13T06:13:32;22.35;;;16.63;;
14599;SDS011;7386;45.586;12.854;2023-10-13T06:16:18;21.63;;;16.05;;
14599;SDS011;7386;45.586;12.854;2023-10-13T06:19:05;23.23;;;16.65;;
14599;SDS011;7386;45.586;12.854;2023-10-13T06:21:51;25.15;;;17.45;;
14599;SDS011;7386;45.586;12.854;2023-10-13T06:24:38;23.85;;;17.38;;
14599;SDS011;7386;45.586;12.854;2023-10-13T06:27:24;23.48;;;16.98;;
14599;SDS011;7386;45.586;12.854;2023-10-13T06:30:11;20.75;;;15.57;;
14599;SDS011;7386;45.586;12.854;2023-10-13T06:32:39;21.75;;;16.08;;
14599;SDS011;7386;45.586;12.854;2023-10-13T06:35:08;22.33;;;16.42;;
14599;SDS011;7386;45.586;12.854;2023-10-13T06:37:45;20.05;;;15.75;;
14599;SDS011;7386;45.586;12.854;2023-10-13T06:40:16;22.88;;;16.73;;
14599;SDS011;7386;45.586;12.854;2023-10-13T06:43:00;22.80;;;16.98;;
14599;SDS011;7386;45.586;12.854;2023-10-13T06:45:43;23.77;;;16.40;;
14599;SDS011;7386;45.586;12.854;2023-10-13T06:48:17;24.63;;;17.60;;
14599;SDS011;7386;45.586;12.854;2023-10-13T06:50:49;24.90;;;17.95;;
14599;SDS011;7386;45.586;12.854;2023-10-13T06:53:18;21.40;;;16.48;;
14599;SDS011;7386;45.586;12.854;2023-10-13T06:55:48;23.05;;;17.33;;
14599;SDS011;7386;45.586;12.854;2023-10-13T06:58:19;21.88;;;16.80;;
14599;SDS011;7386;45.586;12.854;2023-10-13T07:00:51;22.83;;;17.05;;
14599;SDS011;7386;45.586;12.854;2023-10-13T07:03:25;24.25;;;17.88;;
14599;SDS011;7386;45.586;12.854;2023-10-13T07:05:54;23.63;;;17.55;;
14599;SDS011;7386;45.586;12.854;2023-10-13T07:08:25;25.52;;;17.35;;
14599;SDS011;7386;45.586;12.854;2023-10-13T07:10:59;22.15;;;16.65;;
14599;SDS011;7386;45.586;12.854;2023-10-13T07:13:32;23.65;;;17.10;;
14599;SDS011;7386;45.586;12.854;2023-10-13T07:16:06;21.48;;;16.70;;
14599;SDS011;7386;45.586;12.854;2023-10-13T07:18:54;21.10;;;16.50;;
14599;SDS011;7386;45.586;12.854;2023-10-13T07:21:22;21.70;;;16.63;;
14599;SDS011;7386;45.586;12.854;2023-10-13T07:23:58;23.25;;;16.67;;
14599;SDS011;7386;45.586;12.854;2023-10-13T07:26:39;20.52;;;16.13;;
14599;SDS011;7386;45.586;12.854;2023-10-13T07:29:12;25.30;;;18.63;;
14599;SDS011;7386;45.586;12.854;2023-10-13T07:31:41;27.80;;;19.55;;
14599;SDS011;7386;45.586;12.854;2023-10-13T07:34:12;33.42;;;22.35;;
14599;SDS011;7386;45.586;12.854;2023-10-13T07:36:54;34.83;;;24.67;;
14599;SDS011;7386;45.586;12.854;2023-10-13T07:39:27;37.28;;;27.02;;
14599;SDS011;7386;45.586;12.854;2023-10-13T07:42:02;38.03;;;26.92;;
14599;SDS011;7386;45.586;12.854;2023-10-13T07:44:34;37.38;;;25.98;;
14599;SDS011;7386;45.586;12.854;2023-10-13T07:47:12;37.40;;;26.27;;
14599;SDS011;7386;45.586;12.854;2023-10-13T07:49:44;36.35;;;25.60;;
14599;SDS011;7386;45.586;12.854;2023-10-13T07:52:17;38.10;;;26.42;;
14599;SDS011;7386;45.586;12.854;2023-10-13T07:54:57;40.00;;;27.58;;
14599;SDS011;7386;45.586;12.854;2023-10-13T07:57:40;40.83;;;27.92;;
14599;SDS011;7386;45.586;12.854;2023-10-13T08:00:21;40.78;;;28.20;;
14599;SDS011;7386;45.586;12.854;2023-10-13T08:02:56;38.92;;;28.23;;
14599;SDS011;7386;45.586;12.854;2023-10-13T08:05:36;41.67;;;28.73;;
14599;SDS011;7386;45.586;12.854;2023-10-13T08:08:22;39.38;;;28.35;;
14599;SDS011;7386;45.586;12.854;2023-10-13T08:10:52;41.42;;;28.80;;
14599;SDS011;7386;45.586;12.854;2023-10-13T08:13:28;43.70;;;28.75;;
14599;SDS011;7386;45.586;12.854;2023-10-13T08:15:57;42.97;;;29.58;;
14599;SDS011;7386;45.586;12.854;2023-10-13T08:18:32;43.70;;;30.40;;
14599;SDS011;7386;45.586;12.854;2023-10-13T08:21:02;42.53;;;31.17;;
14599;SDS011;7386;45.586;12.854;2023-10-13T08:23:32;45.13;;;31.73;;
14599;SDS011;7386;45.586;12.854;2023-10-13T08:26:17;49.42;;;31.92;;
14599;SDS011;7386;45.586;12.854;2023-10-13T08:29:05;48.22;;;32.88;;
14599;SDS011;7386;45.586;12.854;2023-10-13T08:31:49;49.92;;;33.47;;
14599;SDS011;7386;45.586;12.854;2023-10-13T08:34:38;46.33;;;31.77;;
14599;SDS011;7386;45.586;12.854;2023-10-13T08:37:26;46.42;;;31.65;;
14599;SDS011;7386;45.586;12.854;2023-10-13T08:40:05;50.10;;;32.85;;
14599;SDS011;7386;45.586;12.854;2023-10-13T08:42:51;52.13;;;35.25;;
14599;SDS011;7386;45.586;12.854;2023-10-13T08:45:39;56.95;;;39.28;;
14599;SDS011;7386;45.586;12.854;2023-10-13T08:48:20;60.80;;;41.63;;
14599;SDS011;7386;45.586;12.854;2023-10-13T08:50:58;62.33;;;43.05;;
14599;SDS011;7386;45.586;12.854;2023-10-13T08:53:38;64.25;;;43.28;;
14599;SDS011;7386;45.586;12.854;2023-10-13T08:56:18;65.70;;;45.00;;
14599;SDS011;7386;45.586;12.854;2023-10-13T08:59:00;64.60;;;46.35;;
14599;SDS011;7386;45.586;12.854;2023-10-13T09:01:37;68.25;;;48.13;;
14599;SDS011;7386;45.586;12.854;2023-10-13T09:04:12;74.93;;;53.15;;
14599;SDS011;7386;45.586;12.854;2023-10-13T09:06:49;75.53;;;54.75;;
14599;SDS011;7386;45.586;12.854;2023-10-13T09:09:44;78.65;;;55.45;;
14599;SDS011;7386;45.586;12.854;2023-10-13T09:12:37;82.63;;;57.65;;
14599;SDS011;7386;45.586;12.854;2023-10-13T09:15:30;85.72;;;61.53;;
14599;SDS011;7386;45.586;12.854;2023-10-13T09:18:27;84.80;;;59.13;;
14599;SDS011;7386;45.586;12.854;2023-10-13T09:21:14;86.82;;;60.53;;
14599;SDS011;7386;45.586;12.854;2023-10-13T09:24:00;91.85;;;63.45;;
14599;SDS011;7386;45.586;12.854;2023-10-13T09:26:49;95.82;;;68.85;;
14599;SDS011;7386;45.586;12.854;2023-10-13T09:29:20;93.32;;;67.57;;
14599;SDS011;7386;45.586;12.854;2023-10-13T09:31:58;92.47;;;65.90;;
14599;SDS011;7386;45.586;12.854;2023-10-13T09:34:30;97.60;;;70.30;;
14599;SDS011;7386;45.586;12.854;2023-10-13T09:37:01;103.57;;;75.88;;
14599;SDS011;7386;45.586;12.854;2023-10-13T09:39:30;101.18;;;75.85;;
14599;SDS011;7386;45.586;12.854;2023-10-13T09:42:15;105.15;;;76.00;;
14599;SDS011;7386;45.586;12.854;2023-10-13T09:44:45;102.47;;;73.72;;
14599;SDS011;7386;45.586;12.854;2023-10-13T09:47:26;106.38;;;75.82;;
14599;SDS011;7386;45.586;12.854;2023-10-13T09:50:07;105.88;;;78.15;;
14599;SDS011;7386;45.586;12.854;2023-10-13T09:52:41;106.78;;;77.63;;
14599;SDS011;7386;45.586;12.854;2023-10-13T09:55:15;115.03;;;82.10;;
14599;SDS011;7386;45.586;12.854;2023-10-13T09:57:47;119.20;;;87.45;;
14599;SDS011;7386;45.586;12.854;2023-10-13T10:00:24;115.50;;;84.53;;
14599;SDS011;7386;45.586;12.854;2023-10-13T10:03:11;118.93;;;84.80;;
14599;SDS011;7386;45.586;12.854;2023-10-13T10:05:55;119.25;;;86.50;;
14599;SDS011;7386;45.586;12.854;2023-10-13T10:08:30;114.03;;;84.22;;
14599;SDS011;7386;45.586;12.854;2023-10-13T10:11:05;123.05;;;89.90;;
14599;SDS011;7386;45.586;12.854;2023-10-13T10:13:39;121.55;;;91.47;;
14599;SDS011;7386;45.586;12.854;2023-10-13T10:16:11;121.95;;;90.95;;
14599;SDS011;7386;45.586;12.854;2023-10-13T10:18:46;124.25;;;89.97;;
14599;SDS011;7386;45.586;12.854;2023-10-13T10:21:16;127.45;;;94.22;;
14599;SDS011;7386;45.586;12.854;2023-10-13T10:23:52;125.55;;;94.43;;
14599;SDS011;7386;45.586;12.854;2023-10-13T10:26:20;124.30;;;93.50;;
14599;SDS011;7386;45.586;12.854;2023-10-13T10:28:51;121.43;;;93.30;;
14599;SDS011;7386;45.586;12.854;2023-10-13T10:31:20;121.80;;;91.35;;
14599;SDS011;7386;45.586;12.854;2023-10-13T10:34:10;123.47;;;91.60;;
14599;SDS011;7386;45.586;12.854;2023-10-13T10:36:44;125.90;;;95.20;;
14599;SDS011;7386;45.586;12.854;2023-10-13T10:39:14;131.85;;;97.22;;
14599;SDS011;7386;45.586;12.854;2023-10-13T10:41:44;134.43;;;99.80;;
14599;SDS011;7386;45.586;12.854;2023-10-13T10:44:18;137.32;;;100.20;;
14599;SDS011;7386;45.586;12.854;2023-10-13T10:47:10;138.13;;;105.10;;
14599;SDS011;7386;45.586;12.854;2023-10-13T10:49:46;150.65;;;111.15;;
14599;SDS011;7386;45.586;12.854;2023-10-13T10:52:17;156.75;;;115.95;;
14599;SDS011;7386;45.586;12.854;2023-10-13T10:54:57;146.80;;;112.32;;
14599;SDS011;7386;45.586;12.854;2023-10-13T10:57:26;145.95;;;108.72;;
14599;SDS011;7386;45.586;12.854;2023-10-13T10:59:59;140.38;;;104.97;;
14599;SDS011;7386;45.586;12.854;2023-10-13T11:02:37;142.38;;;106.57;;
14599;SDS011;7386;45.586;12.854;2023-10-13T11:05:06;141.05;;;109.07;;
14599;SDS011;7386;45.586;12.854;2023-10-13T11:07:44;149.82;;;112.63;;
14599;SDS011;7386;45.586;12.854;2023-10-13T11:10:16;137.60;;;105.63;;
14599;SDS011;7386;45.586;12.854;2023-10-13T11:12:54;139.25;;;105.30;;
14599;SDS011;7386;45.586;12.854;2023-10-13T11:15:22;146.25;;;111.55;;
14599;SDS011;7386;45.586;12.854;2023-10-13T11:18:00;150.57;;;111.68;;
14599;SDS011;7386;45.586;12.854;2023-10-13T11:20:32;147.15;;;111.30;;
14599;SDS011;7386;45.586;12.854;2023-10-13T11:23:12;132.07;;;98.20;;
14599;SDS011;7386;45.586;12.854;2023-10-13T11:25:41;124.80;;;96.07;;
14599;SDS011;7386;45.586;12.854;2023-10-13T11:28:11;125.43;;;96.00;;
14599;SDS011;7386;45.586;12.854;2023-10-13T11:30:46;130.38;;;97.10;;
14599;SDS011;7386;45.586;12.854;2023-10-13T11:33:17;123.38;;;95.25;;
14599;SDS011;7386;45.586;12.854;2023-10-13T11:35:50;127.57;;;94.35;;
14599;SDS011;7386;45.586;12.854;2023-10-13T11:38:24;118.88;;;91.78;;
14599;SDS011;7386;45.586;12.854;2023-10-13T11:40:53;113.50;;;85.50;;
14599;SDS011;7386;45.586;12.854;2023-10-13T11:43:43;115.40;;;86.90;;
14599;SDS011;7386;45.586;12.854;2023-10-13T11:46:27;134.88;;;94.40;;
14599;SDS011;7386;45.586;12.854;2023-10-13T11:49:13;133.82;;;97.20;;
14599;SDS011;7386;45.586;12.854;2023-10-13T11:51:45;139.50;;;103.00;;
14599;SDS011;7386;45.586;12.854;2023-10-13T11:54:15;143.00;;;105.82;;
14599;SDS011;7386;45.586;12.854;2023-10-13T11:56:45;134.45;;;108.55;;
14599;SDS011;7386;45.586;12.854;2023-10-13T11:59:14;147.57;;;112.25;;
14599;SDS011;7386;45.586;12.854;2023-10-13T12:01:45;138.52;;;107.35;;
14599;SDS011;7386;45.586;12.854;2023-10-13T12:04:32;142.80;;;109.20;;
14599;SDS011;7386;45.586;12.854;2023-10-13T12:07:07;137.50;;;105.07;;
14599;SDS011;7386;45.586;12.854;2023-10-13T12:09:48;132.52;;;102.30;;
14599;SDS011;7386;45.586;12.854;2023-10-13T12:12:29;136.52;;;105.20;;
14599;SDS011;7386;45.586;12.854;2023-10-13T12:15:06;130.23;;;101.88;;
14599;SDS011;7386;45.586;12.854;2023-10-13T12:17:52;135.07;;;105.03;;
14599;SDS011;7386;45.586;12.854;2023-10-13T12:20:26;130.43;;;99.93;;
14599;SDS011;7386;45.586;12.854;2023-10-13T12:23:00;134.02;;;101.40;;
14599;SDS011;7386;45.586;12.854;2023-10-13T12:25:43;133.48;;;100.53;;
14599;SDS011;7386;45.586;12.854;2023-10-13T12:28:22;127.10;;;94.97;;
14599;SDS011;7386;45.586;12.854;2023-10-13T12:30:54;128.23;;;97.10;;
14599;SDS011;7386;45.586;12.854;2023-10-13T12:33:24;116.85;;;90.22;;
14599;SDS011;7386;45.586;12.854;2023-10-13T12:35:57;107.53;;;82.32;;
14599;SDS011;7386;45.586;12.854;2023-10-13T12:38:33;101.45;;;77.70;;
14599;SDS011;7386;45.586;12.854;2023-10-13T12:41:19;96.38;;;73.03;;
14599;SDS011;7386;45.586;12.854;2023-10-13T12:44:05;90.35;;;71.50;;
14599;SDS011;7386;45.586;12.854;2023-10-13T12:46:52;97.53;;;75.35;;
14599;SDS011;7386;45.586;12.854;2023-10-13T12:49:39;94.18;;;71.57;;
14599;SDS011;7386;45.586;12.854;2023-10-13T12:52:24;91.05;;;69.28;;
14599;SDS011;7386;45.586;12.854;2023-10-13T12:54:58;89.80;;;68.57;;
14599;SDS011;7386;45.586;12.854;2023-10-13T12:57:35;87.75;;;70.57;;
14599;SDS011;7386;45.586;12.854;2023-10-13T13:00:12;87.00;;;67.93;;
14599;SDS011;7386;45.586;12.854;2023-10-13T13:02:48;87.60;;;67.75;;
14599;SDS011;7386;45.586;12.854;2023-10-13T13:05:19;86.18;;;66.95;;
14599;SDS011;7386;45.586;12.854;2023-10-13T13:07:49;85.28;;;66.53;;
14599;SDS011;7386;45.586;12.854;2023-10-13T13:10:20;90.28;;;68.10;;
14599;SDS011;7386;45.586;12.854;2023-10-13T13:13:04;89.88;;;67.97;;
14599;SDS011;7386;45.586;12.854;2023-10-13T13:15:32;89.25;;;68.65;;
14599;SDS011;7386;45.586;12.854;2023-10-13T13:18:01;83.03;;;64.95;;
14599;SDS011;7386;45.586;12.854;2023-10-13T13:20:37;83.78;;;64.28;;
14599;SDS011;7386;45.586;12.854;2023-10-13T13:23:11;91.93;;;70.28;;
14599;SDS011;7386;45.586;12.854;2023-10-13T13:25:44;93.47;;;68.57;;
14599;SDS011;7386;45.586;12.854;2023-10-13T13:28:15;95.85;;;70.38;;
14599;SDS011;7386;45.586;12.854;2023-10-13T13:30:44;88.55;;;68.60;;
14599;SDS011;7386;45.586;12.854;2023-10-13T13:33:17;88.82;;;66.95;;
14599;SDS011;7386;45.586;12.854;2023-10-13T13:35:55;93.18;;;71.90;;
14599;SDS011;7386;45.586;12.854;2023-10-13T13:38:26;95.38;;;73.15;;
14599;SDS011;7386;45.586;12.854;2023-10-13T13:40:58;90.45;;;70.25;;
14599;SDS011;7386;45.586;12.854;2023-10-13T13:43:30;93.80;;;75.07;;
14599;SDS011;7386;45.586;12.854;2023-10-13T13:46:05;90.30;;;71.25;;
14599;SDS011;7386;45.586;12.854;2023-10-13T13:48:36;96.75;;;74.25;;
14599;SDS011;7386;45.586;12.854;2023-10-13T13:51:06;96.00;;;74.32;;
14599;SDS011;7386;45.586;12.854;2023-10-13T13:53:41;91.25;;;70.88;;
14599;SDS011;7386;45.586;12.854;2023-10-13T13:56:13;92.65;;;72.03;;
14599;SDS011;7386;45.586;12.854;2023-10-13T13:58:45;85.22;;;67.82;;
14599;SDS011;7386;45.586;12.854;2023-10-13T14:01:13;90.35;;;68.43;;
14599;SDS011;7386;45.586;12.854;2023-10-13T14:03:45;91.85;;;70.10;;
14599;SDS011;7386;45.586;12.854;2023-10-13T14:06:14;93.05;;;71.55;;
14599;SDS011;7386;45.586;12.854;2023-10-13T14:08:47;98.30;;;73.25;;
14599;SDS011;7386;45.586;12.854;2023-10-13T14:11:17;93.40;;;72.47;;
14599;SDS011;7386;45.586;12.854;2023-10-13T14:14:05;92.80;;;71.57;;
14599;SDS011;7386;45.586;12.854;2023-10-13T14:16:40;93.65;;;74.03;;
14599;SDS011;7386;45.586;12.854;2023-10-13T14:19:12;97.22;;;73.18;;
14599;SDS011;7386;45.586;12.854;2023-10-13T14:21:45;91.63;;;70.78;;
14599;SDS011;7386;45.586;12.854;2023-10-13T14:24:20;90.00;;;68.28;;
14599;SDS011;7386;45.586;12.854;2023-10-13T14:26:54;93.15;;;70.70;;
14599;SDS011;7386;45.586;12.854;2023-10-13T14:29:24;94.57;;;71.50;;
14599;SDS011;7386;45.586;12.854;2023-10-13T14:31:54;94.85;;;73.22;;
14599;SDS011;7386;45.586;12.854;2023-10-13T14:34:23;93.68;;;70.32;;
14599;SDS011;7386;45.586;12.854;2023-10-13T14:36:52;93.10;;;70.15;;
14599;SDS011;7386;45.586;12.854;2023-10-13T14:39:21;93.40;;;68.82;;
14599;SDS011;7386;45.586;12.854;2023-10-13T14:41:56;88.30;;;70.35;;
14599;SDS011;7386;45.586;12.854;2023-10-13T14:44:28;88.82;;;68.07;;
14599;SDS011;7386;45.586;12.854;2023-10-13T14:46:57;88.75;;;70.30;;
14599;SDS011;7386;45.586;12.854;2023-10-13T14:49:26;95.30;;;71.32;;
14599;SDS011;7386;45.586;12.854;2023-10-13T14:51:54;96.65;;;73.00;;
14599;SDS011;7386;45.586;12.854;2023-10-13T14:54:25;97.82;;;72.68;;
14599;SDS011;7386;45.586;12.854;2023-10-13T14:57:00;92.72;;;68.18;;
14599;SDS011;7386;45.586;12.854;2023-10-13T14:59:30;88.10;;;64.80;;
14599;SDS011;7386;45.586;12.854;2023-10-13T15:02:05;92.05;;;67.15;;
14599;SDS011;7386;45.586;12.854;2023-10-13T15:04:33;91.95;;;64.85;;